Datum - Zeit
Döttingen
TemperaturTaupunktFeuchteSolar Wind aus
Richtung
Windböenaus
Richtung
Luftdruck
(QFF)
RegenRegen
Stärke
20.05.2019 - 00.00Uhr12.9 °C11.3 °C90 %0.0 W/m²0.0 km/hNord-NW0.0 km/hNorden1004.0 hPa0.0 mm0.0 mm/h
20.05.2019 - 00.05Uhr12.9 °C11.3 °C90 %0.0 W/m²0.0 km/hNord-NW0.0 km/hNorden1004.0 hPa0.0 mm0.0 mm/h
20.05.2019 - 00.10Uhr12.9 °C11.3 °C90 %0.0 W/m²0.0 km/hNord-NW0.0 km/hNorden1004.0 hPa0.0 mm0.0 mm/h
20.05.2019 - 00.15Uhr13.0 °C11.4 °C90 %0.0 W/m²0.0 km/hNord-NW0.0 km/hNorden1004.0 hPa0.0 mm0.0 mm/h
20.05.2019 - 00.20Uhr12.9 °C11.3 °C90 %0.0 W/m²1.3 km/hNord-NW4.0 km/hNord-NW1004.0 hPa0.0 mm0.0 mm/h
20.05.2019 - 00.25Uhr12.9 °C11.3 °C90 %0.0 W/m²0.0 km/hNord-NW0.0 km/hNorden1004.0 hPa0.0 mm0.0 mm/h
20.05.2019 - 00.30Uhr12.9 °C11.3 °C90 %0.0 W/m²1.0 km/hNord-NW4.0 km/hNord-NW1004.0 hPa0.0 mm0.0 mm/h
20.05.2019 - 00.35Uhr12.9 °C11.3 °C90 %0.0 W/m²0.3 km/hNord-NW1.8 km/hNord-NW1004.0 hPa0.0 mm0.0 mm/h
20.05.2019 - 00.40Uhr12.9 °C11.3 °C90 %0.0 W/m²0.4 km/hNord-NW1.8 km/hNord-NW1004.0 hPa0.0 mm0.0 mm/h
20.05.2019 - 00.45Uhr12.9 °C11.3 °C90 %0.0 W/m²2.4 km/hNordwesten5.8 km/hNordwesten1004.0 hPa0.0 mm0.0 mm/h
20.05.2019 - 00.50Uhr12.8 °C11.2 °C90 %0.0 W/m²1.0 km/hNordwesten4.0 km/hNordwesten1004.0 hPa0.2 mm0.0 mm/h
20.05.2019 - 00.55Uhr12.8 °C11.2 °C90 %0.0 W/m²0.5 km/hNordwesten1.8 km/hNordwesten1004.0 hPa0.0 mm0.0 mm/h
20.05.2019 - 01.00Uhr12.7 °C11.1 °C90 %0.0 W/m²3.2 km/hNordwesten8.3 km/hNordwesten1004.0 hPa0.0 mm0.0 mm/h
20.05.2019 - 01.05Uhr12.6 °C11.0 °C90 %0.0 W/m²2.2 km/hNordwesten5.8 km/hNordwesten1004.0 hPa0.0 mm0.0 mm/h
20.05.2019 - 01.10Uhr12.6 °C11.0 °C90 %0.0 W/m²1.7 km/hNordwesten4.0 km/hNordwesten1004.0 hPa0.0 mm0.0 mm/h
20.05.2019 - 01.15Uhr12.6 °C11.0 °C90 %0.0 W/m²2.9 km/hNordwesten8.3 km/hNordwesten1003.9 hPa0.0 mm0.0 mm/h
20.05.2019 - 01.20Uhr12.5 °C10.9 °C90 %0.0 W/m²2.3 km/hNordwesten5.8 km/hNordwesten1003.9 hPa0.0 mm0.0 mm/h
20.05.2019 - 01.25Uhr12.5 °C10.9 °C90 %0.0 W/m²3.9 km/hNordwesten8.3 km/hNordwesten1003.9 hPa0.0 mm0.0 mm/h
20.05.2019 - 01.30Uhr12.4 °C10.8 °C90 %0.0 W/m²3.3 km/hSüdwesten8.3 km/hSüd-SW1003.9 hPa0.0 mm0.0 mm/h
20.05.2019 - 01.35Uhr12.4 °C10.8 °C90 %0.0 W/m²3.3 km/hWest-NW8.3 km/hWest-NW1003.9 hPa0.0 mm0.0 mm/h
20.05.2019 - 01.40Uhr12.4 °C10.8 °C90 %0.0 W/m²3.0 km/hWest-NW5.8 km/hWest-NW1003.9 hPa0.0 mm0.0 mm/h
20.05.2019 - 01.45Uhr12.3 °C10.7 °C90 %0.0 W/m²3.8 km/hWest-NW12.2 km/hWest-NW1003.9 hPa0.0 mm0.0 mm/h
20.05.2019 - 01.50Uhr12.3 °C10.7 °C90 %0.0 W/m²4.2 km/hWest-NW10.1 km/hWest-NW1004.0 hPa0.0 mm0.0 mm/h
20.05.2019 - 01.55Uhr12.3 °C10.7 °C90 %0.0 W/m²3.2 km/hWest-NW8.3 km/hWest-NW1004.0 hPa0.0 mm0.0 mm/h
20.05.2019 - 02.00Uhr12.3 °C10.7 °C90 %0.0 W/m²1.8 km/hWest-NW5.8 km/hWest-NW1004.0 hPa0.0 mm0.0 mm/h
20.05.2019 - 02.05Uhr12.4 °C10.8 °C90 %0.0 W/m²0.4 km/hWest-NW1.8 km/hWest-NW1004.0 hPa0.0 mm0.0 mm/h
20.05.2019 - 02.10Uhr12.4 °C10.8 °C90 %0.0 W/m²0.4 km/hWest-NW1.8 km/hWest-NW1004.0 hPa0.0 mm0.0 mm/h
20.05.2019 - 02.15Uhr12.4 °C10.8 °C90 %0.0 W/m²1.7 km/hWest-NW4.0 km/hWest-NW1004.0 hPa0.0 mm0.0 mm/h
20.05.2019 - 02.20Uhr12.4 °C10.8 °C90 %0.0 W/m²1.5 km/hWest-NW4.0 km/hWest-NW1004.0 hPa0.0 mm0.0 mm/h
20.05.2019 - 02.25Uhr12.3 °C10.7 °C90 %0.0 W/m²0.5 km/hWest-NW1.8 km/hWest-NW1004.0 hPa0.0 mm0.0 mm/h
20.05.2019 - 02.30Uhr12.3 °C10.7 °C90 %0.0 W/m²1.1 km/hWest-NW4.0 km/hWest-NW1003.9 hPa0.0 mm0.0 mm/h
20.05.2019 - 02.35Uhr12.3 °C10.7 °C90 %0.0 W/m²0.0 km/hWest-NW0.0 km/hNorden1003.9 hPa0.0 mm0.0 mm/h
20.05.2019 - 02.40Uhr12.3 °C10.7 °C90 %0.0 W/m²2.5 km/hWest-NW5.8 km/hWest-NW1003.9 hPa0.0 mm0.0 mm/h
20.05.2019 - 02.45Uhr12.3 °C10.7 °C90 %0.0 W/m²0.5 km/hWest-NW1.8 km/hWest-NW1003.9 hPa0.0 mm0.0 mm/h
20.05.2019 - 02.50Uhr12.2 °C10.6 °C90 %0.0 W/m²0.3 km/hWest-NW1.8 km/hWest-NW1003.8 hPa0.0 mm0.0 mm/h
20.05.2019 - 02.55Uhr12.2 °C10.6 °C90 %0.0 W/m²0.0 km/hWest-NW0.0 km/hNorden1003.8 hPa0.0 mm0.0 mm/h
20.05.2019 - 03.00Uhr12.2 °C10.6 °C90 %0.0 W/m²1.3 km/hWest-NW4.0 km/hWest-NW1003.8 hPa0.0 mm0.0 mm/h
20.05.2019 - 03.05Uhr12.2 °C10.6 °C90 %0.0 W/m²1.8 km/hWest-NW5.8 km/hWest-NW1003.7 hPa0.0 mm0.0 mm/h
20.05.2019 - 03.10Uhr12.2 °C10.6 °C90 %0.0 W/m²0.0 km/hWest-NW0.0 km/hNorden1003.7 hPa0.0 mm0.0 mm/h
20.05.2019 - 03.15Uhr12.2 °C10.6 °C90 %0.0 W/m²0.3 km/hWest-NW1.8 km/hWest-NW1003.7 hPa0.0 mm0.0 mm/h
20.05.2019 - 03.20Uhr12.2 °C10.6 °C90 %0.0 W/m²0.4 km/hWest-NW1.8 km/hWest-NW1003.7 hPa0.0 mm0.0 mm/h
20.05.2019 - 03.25Uhr12.2 °C10.6 °C90 %0.0 W/m²0.0 km/hWest-NW0.0 km/hNorden1003.7 hPa0.0 mm0.0 mm/h
20.05.2019 - 03.30Uhr12.3 °C10.7 °C90 %0.0 W/m²0.0 km/hWest-NW0.0 km/hNorden1003.6 hPa0.0 mm0.0 mm/h
20.05.2019 - 03.35Uhr12.2 °C10.7 °C90 %0.0 W/m²0.0 km/hWest-NW0.0 km/hNorden1003.6 hPa0.0 mm0.0 mm/h
20.05.2019 - 03.40Uhr12.3 °C10.7 °C90 %0.0 W/m²0.6 km/hWest-NW1.8 km/hWest-NW1003.6 hPa0.0 mm0.0 mm/h
20.05.2019 - 03.45Uhr12.2 °C10.6 °C90 %0.0 W/m²0.3 km/hWest-NW1.8 km/hWest-NW1003.6 hPa0.0 mm0.0 mm/h
20.05.2019 - 03.50Uhr12.1 °C10.5 °C90 %0.0 W/m²0.0 km/hWest-NW0.0 km/hNorden1003.6 hPa0.0 mm0.0 mm/h
20.05.2019 - 03.55Uhr12.1 °C10.5 °C90 %0.0 W/m²0.3 km/hWest-NW1.8 km/hWest-NW1003.6 hPa0.2 mm0.0 mm/h
20.05.2019 - 04.00Uhr12.1 °C10.5 °C90 %0.0 W/m²0.0 km/hWest-NW0.0 km/hNorden1003.6 hPa0.0 mm0.0 mm/h
20.05.2019 - 04.05Uhr12.1 °C10.5 °C90 %0.0 W/m²0.0 km/hWest-NW0.0 km/hNorden1003.6 hPa0.0 mm0.0 mm/h
20.05.2019 - 04.10Uhr12.1 °C10.5 °C90 %0.0 W/m²0.0 km/hWest-NW0.0 km/hNorden1003.6 hPa0.0 mm0.0 mm/h
20.05.2019 - 04.15Uhr12.1 °C10.5 °C90 %0.0 W/m²0.0 km/hWest-NW0.0 km/hNorden1003.6 hPa0.0 mm0.0 mm/h
20.05.2019 - 04.20Uhr12.2 °C10.6 °C90 %0.0 W/m²0.0 km/hWest-NW0.0 km/hNorden1003.6 hPa0.2 mm0.0 mm/h
20.05.2019 - 04.25Uhr12.2 °C10.6 °C90 %0.0 W/m²0.0 km/hWest-NW0.0 km/hNorden1003.6 hPa0.0 mm0.0 mm/h
20.05.2019 - 04.30Uhr12.1 °C10.5 °C90 %0.0 W/m²0.0 km/hWest-NW0.0 km/hNorden1003.6 hPa0.0 mm0.0 mm/h
20.05.2019 - 04.35Uhr12.1 °C10.5 °C90 %0.0 W/m²0.0 km/hWest-NW0.0 km/hNorden1003.6 hPa0.0 mm0.0 mm/h
20.05.2019 - 04.40Uhr12.2 °C10.6 °C90 %0.0 W/m²0.0 km/hWest-NW0.0 km/hNorden1003.7 hPa0.0 mm0.0 mm/h
20.05.2019 - 04.45Uhr12.1 °C10.5 °C90 %0.0 W/m²1.8 km/hWest-NW5.8 km/hWest-NW1003.7 hPa0.2 mm0.0 mm/h
20.05.2019 - 04.50Uhr12.2 °C10.6 °C90 %0.0 W/m²0.0 km/hWest-NW0.0 km/hNorden1003.6 hPa0.0 mm0.0 mm/h
20.05.2019 - 04.55Uhr12.2 °C10.6 °C90 %0.0 W/m²0.0 km/hWest-NW0.0 km/hNorden1003.6 hPa0.2 mm1.8 mm/h
20.05.2019 - 05.00Uhr12.1 °C10.5 °C90 %0.0 W/m²0.0 km/hWest-NW0.0 km/hNorden1003.6 hPa0.0 mm1.8 mm/h
20.05.2019 - 05.05Uhr12.1 °C10.5 °C90 %0.0 W/m²0.3 km/hWest-NW1.8 km/hWest-NW1003.6 hPa0.2 mm1.4 mm/h
20.05.2019 - 05.10Uhr12.0 °C10.4 °C90 %0.0 W/m²1.5 km/hWest-NW5.8 km/hWest-NW1003.6 hPa0.0 mm1.2 mm/h
20.05.2019 - 05.15Uhr12.1 °C10.5 °C90 %0.0 W/m²0.0 km/hWest-NW0.0 km/hNorden1003.5 hPa0.2 mm1.2 mm/h
20.05.2019 - 05.20Uhr12.1 °C10.5 °C90 %0.0 W/m²0.8 km/hWest-NW1.8 km/hWest-NW1003.5 hPa0.0 mm1.2 mm/h
20.05.2019 - 05.25Uhr12.1 °C10.5 °C90 %0.0 W/m²1.3 km/hWest-NW4.0 km/hWest-NW1003.5 hPa0.2 mm1.2 mm/h
20.05.2019 - 05.30Uhr12.1 °C10.5 °C90 %0.0 W/m²0.6 km/hWest-NW1.8 km/hWest-NW1003.5 hPa0.2 mm2.0 mm/h
20.05.2019 - 05.35Uhr12.2 °C10.6 °C90 %0.0 W/m²0.7 km/hWest-NW1.8 km/hWest-NW1003.6 hPa0.0 mm2.0 mm/h
20.05.2019 - 05.40Uhr12.2 °C10.6 °C90 %0.0 W/m²0.5 km/hWest-NW1.8 km/hWest-NW1003.6 hPa0.0 mm1.6 mm/h
20.05.2019 - 05.45Uhr12.2 °C10.6 °C90 %0.0 W/m²0.5 km/hWest-NW1.8 km/hWest-NW1003.6 hPa0.2 mm1.0 mm/h
20.05.2019 - 05.50Uhr12.1 °C10.5 °C90 %0.0 W/m²2.6 km/hWest-NW5.8 km/hWest-NW1003.6 hPa0.0 mm1.0 mm/h
20.05.2019 - 05.55Uhr12.0 °C10.4 °C90 %0.0 W/m²0.0 km/hWest-NW0.0 km/hNorden1003.7 hPa0.2 mm1.0 mm/h
20.05.2019 - 06.00Uhr12.1 °C10.5 °C90 %0.0 W/m²0.0 km/hWest-NW0.0 km/hNorden1003.8 hPa0.0 mm1.0 mm/h
20.05.2019 - 06.05Uhr12.1 °C10.5 °C90 %5.0 W/m²1.1 km/hWest-NW4.0 km/hWest-NW1003.8 hPa0.0 mm1.0 mm/h
20.05.2019 - 06.10Uhr12.0 °C10.4 °C90 %9.0 W/m²1.0 km/hWest-NW4.0 km/hWest-NW1003.8 hPa0.2 mm0.8 mm/h
20.05.2019 - 06.15Uhr12.1 °C10.5 °C90 %11.0 W/m²0.5 km/hWest-NW1.8 km/hWest-NW1003.8 hPa0.2 mm2.2 mm/h
20.05.2019 - 06.20Uhr12.0 °C10.4 °C90 %12.0 W/m²0.3 km/hWest-NW1.8 km/hWest-NW1003.8 hPa0.0 mm2.2 mm/h
20.05.2019 - 06.25Uhr12.1 °C10.5 °C90 %14.0 W/m²0.0 km/hWest-NW0.0 km/hNorden1003.8 hPa0.2 mm1.4 mm/h
20.05.2019 - 06.30Uhr12.1 °C10.5 °C90 %12.0 W/m²0.0 km/hWest-NW0.0 km/hNorden1003.8 hPa0.0 mm1.0 mm/h
20.05.2019 - 06.35Uhr12.1 °C10.5 °C90 %14.0 W/m²0.3 km/hWest-NW1.8 km/hWest-NW1003.8 hPa0.0 mm1.0 mm/h
20.05.2019 - 06.40Uhr12.1 °C10.5 °C90 %16.0 W/m²0.5 km/hWest-NW1.8 km/hWest-NW1003.8 hPa0.2 mm1.0 mm/h
20.05.2019 - 06.45Uhr12.1 °C10.5 °C90 %19.0 W/m²0.9 km/hWest-NW4.0 km/hWest-NW1003.8 hPa0.0 mm1.0 mm/h
20.05.2019 - 06.50Uhr12.1 °C10.5 °C90 %21.0 W/m²1.8 km/hWest-NW5.8 km/hWest-NW1003.8 hPa0.0 mm1.0 mm/h
20.05.2019 - 06.55Uhr12.1 °C10.5 °C90 %23.0 W/m²1.0 km/hWest-NW4.0 km/hWest-NW1003.9 hPa0.0 mm0.8 mm/h
20.05.2019 - 07.00Uhr12.1 °C10.5 °C90 %28.0 W/m²1.5 km/hWest-NW4.0 km/hWest-NW1003.9 hPa0.0 mm0.0 mm/h
20.05.2019 - 07.05Uhr12.1 °C10.5 °C90 %30.0 W/m²0.0 km/hWest-NW0.0 km/hNorden1003.9 hPa0.2 mm0.0 mm/h
20.05.2019 - 07.10Uhr12.2 °C10.6 °C90 %33.0 W/m²0.5 km/hWest-NW1.8 km/hWest-NW1003.9 hPa0.0 mm0.0 mm/h
20.05.2019 - 07.15Uhr12.1 °C10.5 °C90 %32.0 W/m²0.3 km/hWest-NW1.8 km/hWest-NW1003.9 hPa0.0 mm0.0 mm/h
20.05.2019 - 07.20Uhr12.2 °C10.6 °C90 %33.0 W/m²0.0 km/hWest-NW0.0 km/hNorden1003.9 hPa0.2 mm0.8 mm/h
20.05.2019 - 07.25Uhr12.3 °C10.7 °C90 %35.0 W/m²0.0 km/hWest-NW0.0 km/hNorden1003.9 hPa0.0 mm0.8 mm/h
20.05.2019 - 07.30Uhr12.2 °C10.6 °C90 %40.0 W/m²3.0 km/hWest-NW8.3 km/hWest-NW1003.9 hPa0.0 mm0.8 mm/h
20.05.2019 - 07.35Uhr12.2 °C10.6 °C90 %39.0 W/m²3.4 km/hWest-NW8.3 km/hWest-NW1004.0 hPa0.2 mm0.8 mm/h
20.05.2019 - 07.40Uhr12.2 °C10.6 °C90 %44.0 W/m²2.5 km/hWest-NW5.8 km/hWest-NW1004.0 hPa0.0 mm0.0 mm/h
20.05.2019 - 07.45Uhr12.2 °C10.6 °C90 %47.0 W/m²1.2 km/hWest-NW4.0 km/hWest-NW1004.0 hPa0.2 mm1.2 mm/h
20.05.2019 - 07.50Uhr12.3 °C10.7 °C90 %62.0 W/m²1.8 km/hWest-NW5.8 km/hWest-NW1003.9 hPa0.0 mm1.2 mm/h
20.05.2019 - 07.55Uhr12.4 °C10.8 °C90 %62.0 W/m²2.9 km/hWest-NW8.3 km/hWest-NW1003.9 hPa0.0 mm1.2 mm/h
20.05.2019 - 08.00Uhr12.3 °C10.7 °C90 %49.0 W/m²3.9 km/hWest-NW10.1 km/hWest-NW1004.0 hPa0.2 mm1.0 mm/h
20.05.2019 - 08.05Uhr12.3 °C10.7 °C90 %42.0 W/m²1.7 km/hWest-NW5.8 km/hWest-NW1004.0 hPa0.0 mm0.8 mm/h
20.05.2019 - 08.10Uhr12.3 °C10.8 °C90 %35.0 W/m²0.7 km/hWest-NW4.0 km/hWest-NW1004.0 hPa0.2 mm1.6 mm/h
20.05.2019 - 08.15Uhr12.3 °C10.7 °C90 %32.0 W/m²0.7 km/hWest-NW1.8 km/hWest-NW1004.1 hPa0.0 mm1.6 mm/h
20.05.2019 - 08.20Uhr12.3 °C10.7 °C90 %30.0 W/m²1.6 km/hWest-NW5.8 km/hWest-NW1004.1 hPa0.0 mm1.6 mm/h
20.05.2019 - 08.25Uhr12.3 °C10.7 °C90 %25.0 W/m²0.5 km/hWest-NW1.8 km/hWest-NW1004.2 hPa0.0 mm1.0 mm/h
20.05.2019 - 08.30Uhr12.3 °C10.7 °C90 %23.0 W/m²0.7 km/hWest-NW1.8 km/hWest-NW1004.2 hPa0.0 mm0.0 mm/h
20.05.2019 - 08.35Uhr12.3 °C10.7 °C90 %19.0 W/m²1.3 km/hWest-NW4.0 km/hWest-NW1004.2 hPa0.0 mm0.0 mm/h
20.05.2019 - 08.40Uhr12.3 °C10.7 °C90 %26.0 W/m²1.9 km/hWest-NW5.8 km/hWest-NW1004.2 hPa0.2 mm0.0 mm/h
20.05.2019 - 08.45Uhr12.3 °C10.7 °C90 %28.0 W/m²1.5 km/hWest-NW4.0 km/hWest-NW1004.3 hPa0.6 mm13.6 mm/h
20.05.2019 - 08.50Uhr12.3 °C10.7 °C90 %39.0 W/m²1.8 km/hWest-NW4.0 km/hWest-NW1004.3 hPa0.6 mm13.4 mm/h
20.05.2019 - 08.55Uhr12.3 °C10.7 °C90 %37.0 W/m²1.9 km/hWest-NW5.8 km/hWest-NW1004.3 hPa0.2 mm8.8 mm/h
20.05.2019 - 09.00Uhr12.2 °C10.6 °C90 %42.0 W/m²4.1 km/hWest-NW8.3 km/hWest-NW1004.3 hPa0.2 mm2.8 mm/h
20.05.2019 - 09.05Uhr12.2 °C10.6 °C90 %56.0 W/m²4.6 km/hWest-NW12.2 km/hWest-NW1004.3 hPa0.2 mm2.2 mm/h
20.05.2019 - 09.10Uhr12.2 °C10.6 °C90 %58.0 W/m²2.3 km/hWest-NW8.3 km/hWest-NW1004.4 hPa0.0 mm2.0 mm/h
20.05.2019 - 09.15Uhr12.2 °C10.6 °C90 %51.0 W/m²4.5 km/hWest-NW8.3 km/hWest-NW1004.5 hPa0.0 mm1.4 mm/h
20.05.2019 - 09.20Uhr12.2 °C10.6 °C90 %47.0 W/m²2.9 km/hWest-NW8.3 km/hWest-NW1004.5 hPa0.0 mm1.0 mm/h
20.05.2019 - 09.25Uhr12.2 °C10.6 °C90 %39.0 W/m²4.7 km/hNordwesten14.0 km/hWesten1004.6 hPa0.2 mm0.0 mm/h
20.05.2019 - 09.30Uhr12.1 °C10.5 °C90 %33.0 W/m²7.0 km/hWesten12.2 km/hWesten1004.6 hPa0.2 mm1.8 mm/h
20.05.2019 - 09.35Uhr12.1 °C10.5 °C90 %33.0 W/m²3.6 km/hWesten12.2 km/hWest-NW1004.6 hPa0.2 mm2.4 mm/h
20.05.2019 - 09.40Uhr12.2 °C10.6 °C90 %35.0 W/m²1.7 km/hWesten5.8 km/hWesten1004.7 hPa0.6 mm11.4 mm/h
20.05.2019 - 09.45Uhr12.2 °C10.6 °C90 %35.0 W/m²1.5 km/hWesten4.0 km/hWesten1004.7 hPa0.6 mm14.4 mm/h
20.05.2019 - 09.50Uhr12.1 °C10.5 °C90 %32.0 W/m²2.5 km/hWesten8.3 km/hWesten1004.8 hPa0.6 mm10.6 mm/h
20.05.2019 - 09.55Uhr12.1 °C10.5 °C90 %33.0 W/m²3.0 km/hWesten8.3 km/hWesten1004.8 hPa0.4 mm10.6 mm/h
20.05.2019 - 10.00Uhr12.1 °C10.5 °C90 %53.0 W/m²2.5 km/hWesten8.3 km/hWesten1004.8 hPa0.6 mm10.2 mm/h
20.05.2019 - 10.05Uhr12.1 °C10.5 °C90 %76.0 W/m²0.3 km/hWesten1.8 km/hWesten1004.8 hPa0.6 mm10.2 mm/h
20.05.2019 - 10.10Uhr12.2 °C10.6 °C90 %77.0 W/m²1.8 km/hWesten5.8 km/hWesten1004.8 hPa0.4 mm7.6 mm/h
20.05.2019 - 10.15Uhr12.2 °C10.6 °C90 %69.0 W/m²0.2 km/hWesten1.8 km/hWesten1004.9 hPa0.2 mm5.8 mm/h
20.05.2019 - 10.20Uhr12.2 °C10.6 °C90 %62.0 W/m²0.0 km/hWesten0.0 km/hNorden1004.9 hPa0.4 mm5.8 mm/h
20.05.2019 - 10.25Uhr12.3 °C10.7 °C90 %51.0 W/m²0.3 km/hWesten1.8 km/hWesten1005.0 hPa0.4 mm9.6 mm/h
20.05.2019 - 10.30Uhr12.2 °C10.6 °C90 %51.0 W/m²3.2 km/hSüdosten12.2 km/hSüdosten1005.1 hPa0.8 mm11.8 mm/h
20.05.2019 - 10.35Uhr12.3 °C10.8 °C90 %53.0 W/m²0.0 km/hSüdosten0.0 km/hNorden1005.0 hPa0.6 mm11.8 mm/h
20.05.2019 - 10.40Uhr12.3 °C10.7 °C90 %69.0 W/m²0.3 km/hSüdosten1.8 km/hSüdosten1005.0 hPa0.6 mm7.6 mm/h
20.05.2019 - 10.45Uhr12.3 °C10.7 °C90 %76.0 W/m²1.2 km/hSüdosten4.0 km/hSüdosten1005.1 hPa0.2 mm5.6 mm/h
20.05.2019 - 10.50Uhr12.4 °C10.8 °C90 %97.0 W/m²4.7 km/hSüdwesten12.2 km/hSüdwesten1005.1 hPa0.4 mm5.8 mm/h
20.05.2019 - 10.55Uhr12.3 °C10.7 °C90 %98.0 W/m²1.6 km/hWesten4.0 km/hWesten1005.2 hPa0.4 mm4.4 mm/h
20.05.2019 - 11.00Uhr12.3 °C10.8 °C90 %105.0 W/m²5.2 km/hWesten8.3 km/hWesten1005.2 hPa0.2 mm4.4 mm/h
20.05.2019 - 11.05Uhr12.3 °C10.7 °C90 %86.0 W/m²5.6 km/hWest-NW14.0 km/hWest-NW1005.2 hPa0.2 mm3.4 mm/h
20.05.2019 - 11.10Uhr12.4 °C10.8 °C90 %62.0 W/m²1.7 km/hWest-NW5.8 km/hWest-NW1005.4 hPa0.2 mm3.2 mm/h
20.05.2019 - 11.15Uhr12.4 °C10.8 °C90 %56.0 W/m²0.0 km/hWest-NW0.0 km/hNorden1005.4 hPa0.4 mm4.0 mm/h
20.05.2019 - 11.20Uhr12.4 °C10.8 °C90 %63.0 W/m²1.4 km/hWest-NW5.8 km/hWest-NW1005.3 hPa0.4 mm5.8 mm/h
20.05.2019 - 11.25Uhr12.4 °C10.8 °C90 %65.0 W/m²2.7 km/hWest-NW5.8 km/hWest-NW1005.2 hPa0.4 mm8.2 mm/h
20.05.2019 - 11.30Uhr12.5 °C10.9 °C90 %62.0 W/m²0.6 km/hWest-NW1.8 km/hWest-NW1005.3 hPa0.6 mm6.6 mm/h
20.05.2019 - 11.35Uhr12.4 °C10.8 °C90 %63.0 W/m²1.0 km/hWest-NW4.0 km/hWest-NW1005.3 hPa0.2 mm6.6 mm/h
20.05.2019 - 11.40Uhr12.4 °C10.8 °C90 %49.0 W/m²5.1 km/hWest-NW8.3 km/hWest-NW1005.4 hPa0.6 mm6.6 mm/h
20.05.2019 - 11.45Uhr12.3 °C10.7 °C90 %56.0 W/m²3.1 km/hWest-NW8.3 km/hWest-NW1005.4 hPa0.4 mm7.2 mm/h
20.05.2019 - 11.50Uhr12.2 °C10.6 °C90 %39.0 W/m²3.1 km/hWest-NW8.3 km/hSüd-SW1005.5 hPa0.6 mm7.8 mm/h
20.05.2019 - 11.55Uhr12.3 °C10.7 °C90 %30.0 W/m²3.1 km/hSüd-SW10.1 km/hSüd-SO1005.6 hPa0.6 mm14.6 mm/h
20.05.2019 - 12.00Uhr12.3 °C10.7 °C90 %35.0 W/m²1.2 km/hSüd-SW5.8 km/hSüd-SW1005.6 hPa0.6 mm13.8 mm/h
20.05.2019 - 12.05Uhr12.3 °C10.7 °C90 %77.0 W/m²0.2 km/hSüd-SW1.8 km/hSüd-SW1005.6 hPa0.4 mm7.6 mm/h
20.05.2019 - 12.10Uhr12.4 °C10.8 °C90 %111.0 W/m²0.3 km/hSüd-SW5.8 km/hSüd-SW1005.6 hPa0.4 mm7.0 mm/h
20.05.2019 - 12.15Uhr12.6 °C11.0 °C90 %111.0 W/m²1.3 km/hSüd-SW8.3 km/hSüdwesten1005.6 hPa0.2 mm4.8 mm/h
20.05.2019 - 12.20Uhr12.5 °C10.9 °C90 %114.0 W/m²5.7 km/hSüdwesten12.2 km/hWest-SW1005.6 hPa0.2 mm3.8 mm/h
20.05.2019 - 12.25Uhr12.4 °C10.8 °C90 %134.0 W/m²6.0 km/hNordwesten12.2 km/hWesten1005.7 hPa0.2 mm2.8 mm/h
20.05.2019 - 12.30Uhr12.5 °C10.9 °C90 %137.0 W/m²6.2 km/hWest-NW18.0 km/hWest-NW1005.7 hPa0.4 mm5.2 mm/h
20.05.2019 - 12.35Uhr12.7 °C11.1 °C90 %130.0 W/m²5.7 km/hWest-NW12.2 km/hSüdwesten1005.6 hPa0.0 mm4.8 mm/h
20.05.2019 - 12.40Uhr12.6 °C11.0 °C90 %121.0 W/m²3.9 km/hWest-SW8.3 km/hSüdwesten1005.6 hPa0.4 mm2.6 mm/h
20.05.2019 - 12.45Uhr12.6 °C11.0 °C90 %97.0 W/m²3.3 km/hWest-SW8.3 km/hWest-SW1005.6 hPa0.0 mm2.6 mm/h
20.05.2019 - 12.50Uhr12.6 °C11.0 °C90 %77.0 W/m²5.5 km/hWest-SW16.2 km/hSüd-SO1005.8 hPa0.2 mm2.0 mm/h
20.05.2019 - 12.55Uhr12.4 °C10.8 °C90 %46.0 W/m²6.8 km/hSüd-SO14.0 km/hSüd-SO1005.8 hPa0.2 mm3.6 mm/h
20.05.2019 - 13.00Uhr12.5 °C10.9 °C90 %39.0 W/m²1.1 km/hWest-SW4.0 km/hWest-SW1005.8 hPa0.2 mm2.8 mm/h
20.05.2019 - 13.05Uhr12.6 °C11.0 °C90 %37.0 W/m²0.5 km/hWest-SW1.8 km/hWest-SW1005.9 hPa0.2 mm3.0 mm/h
20.05.2019 - 13.10Uhr12.6 °C11.0 °C90 %51.0 W/m²1.2 km/hWest-SW4.0 km/hWest-SW1005.9 hPa0.0 mm3.0 mm/h
20.05.2019 - 13.15Uhr12.6 °C11.0 °C90 %114.0 W/m²0.9 km/hWest-SW4.0 km/hWest-SW1005.9 hPa0.2 mm1.4 mm/h
20.05.2019 - 13.20Uhr12.7 °C11.1 °C90 %113.0 W/m²4.1 km/hWesten8.3 km/hWest-SW1005.8 hPa0.2 mm2.4 mm/h
20.05.2019 - 13.25Uhr12.7 °C11.1 °C90 %81.0 W/m²5.0 km/hWest-SW18.0 km/hWest-SW1005.9 hPa0.0 mm2.4 mm/h
20.05.2019 - 13.30Uhr12.7 °C11.1 °C90 %81.0 W/m²4.9 km/hWest-NW12.2 km/hWest-NW1005.9 hPa0.0 mm1.4 mm/h
20.05.2019 - 13.35Uhr12.5 °C10.9 °C90 %72.0 W/m²6.4 km/hWest-NW18.0 km/hWesten1005.9 hPa0.2 mm0.8 mm/h
20.05.2019 - 13.40Uhr12.3 °C10.7 °C90 %60.0 W/m²9.0 km/hNordwesten16.2 km/hWesten1006.0 hPa0.0 mm0.8 mm/h
20.05.2019 - 13.45Uhr12.5 °C10.9 °C90 %58.0 W/m²3.9 km/hNord-NW8.3 km/hNordwesten1006.0 hPa0.0 mm0.8 mm/h
20.05.2019 - 13.50Uhr12.4 °C10.8 °C90 %62.0 W/m²4.3 km/hWesten8.3 km/hWesten1005.9 hPa0.0 mm0.8 mm/h
20.05.2019 - 13.55Uhr12.5 °C10.9 °C90 %62.0 W/m²4.0 km/hWest-NW12.2 km/hWest-SW1006.0 hPa0.0 mm0.0 mm/h
20.05.2019 - 14.00Uhr12.5 °C10.9 °C90 %60.0 W/m²5.3 km/hWest-SW12.2 km/hSüdwesten1006.0 hPa0.0 mm0.0 mm/h
20.05.2019 - 14.05Uhr12.5 °C10.9 °C90 %60.0 W/m²2.7 km/hWest-SW12.2 km/hWest-NW1006.0 hPa0.2 mm0.0 mm/h
20.05.2019 - 14.10Uhr12.5 °C10.9 °C90 %63.0 W/m²7.2 km/hWesten18.0 km/hWesten1006.1 hPa0.0 mm0.0 mm/h
20.05.2019 - 14.15Uhr12.4 °C10.8 °C90 %67.0 W/m²4.0 km/hSüdwesten8.3 km/hWesten1006.1 hPa0.0 mm0.0 mm/h
20.05.2019 - 14.20Uhr12.5 °C10.9 °C90 %76.0 W/m²7.3 km/hWest-NW16.2 km/hWest-NW1006.1 hPa0.0 mm0.0 mm/h
20.05.2019 - 14.25Uhr12.4 °C10.8 °C90 %102.0 W/m²6.0 km/hWest-NW18.0 km/hWest-NW1006.1 hPa0.0 mm0.0 mm/h
20.05.2019 - 14.30Uhr12.7 °C11.1 °C90 %118.0 W/m²4.3 km/hWest-NW12.2 km/hWest-NW1006.2 hPa0.0 mm0.0 mm/h
20.05.2019 - 14.35Uhr12.6 °C11.0 °C90 %93.0 W/m²7.3 km/hWesten12.2 km/hWesten1006.2 hPa0.0 mm0.0 mm/h
20.05.2019 - 14.40Uhr12.6 °C11.0 °C90 %76.0 W/m²8.8 km/hWesten24.5 km/hWesten1006.2 hPa0.0 mm0.0 mm/h
20.05.2019 - 14.45Uhr12.6 °C11.0 °C90 %74.0 W/m²4.0 km/hNordwesten14.0 km/hNordwesten1006.2 hPa0.0 mm0.0 mm/h
20.05.2019 - 14.50Uhr12.7 °C11.1 °C90 %90.0 W/m²2.4 km/hWest-NW5.8 km/hWest-NW1006.2 hPa0.0 mm0.0 mm/h
20.05.2019 - 14.55Uhr12.9 °C11.3 °C90 %107.0 W/m²3.7 km/hWest-NW14.0 km/hSüdwesten1006.3 hPa0.0 mm0.0 mm/h
20.05.2019 - 15.00Uhr12.8 °C11.2 °C90 %130.0 W/m²7.3 km/hWest-NW16.2 km/hWest-NW1006.3 hPa0.0 mm0.0 mm/h
20.05.2019 - 15.05Uhr12.9 °C11.3 °C90 %141.0 W/m²5.9 km/hWesten16.2 km/hWesten1006.3 hPa0.0 mm0.0 mm/h
20.05.2019 - 15.10Uhr13.0 °C11.4 °C90 %165.0 W/m²5.3 km/hWesten12.2 km/hWesten1006.3 hPa0.0 mm0.0 mm/h
20.05.2019 - 15.15Uhr13.1 °C11.5 °C90 %185.0 W/m²7.2 km/hWesten18.0 km/hWesten1006.2 hPa0.0 mm0.0 mm/h
20.05.2019 - 15.20Uhr13.1 °C11.5 °C90 %199.0 W/m²7.3 km/hWest-NW18.0 km/hWest-NW1006.2 hPa0.0 mm0.0 mm/h
20.05.2019 - 15.25Uhr13.2 °C11.6 °C90 %188.0 W/m²6.4 km/hNordwesten16.2 km/hWesten1006.2 hPa0.0 mm0.0 mm/h
20.05.2019 - 15.30Uhr13.5 °C11.9 °C90 %204.0 W/m²3.8 km/hNordwesten14.0 km/hSüd-SW1006.2 hPa0.0 mm0.0 mm/h
20.05.2019 - 15.35Uhr13.4 °C11.8 °C90 %199.0 W/m²9.4 km/hWesten24.5 km/hWest-NW1006.2 hPa0.0 mm0.0 mm/h
20.05.2019 - 15.40Uhr13.3 °C11.7 °C90 %190.0 W/m²10.2 km/hWesten22.0 km/hWest-NW1006.3 hPa0.0 mm0.0 mm/h
20.05.2019 - 15.45Uhr13.2 °C11.6 °C90 %114.0 W/m²7.3 km/hWesten12.2 km/hWest-NW1006.3 hPa0.0 mm0.0 mm/h
20.05.2019 - 15.50Uhr13.3 °C11.7 °C90 %93.0 W/m²5.9 km/hWesten14.0 km/hWesten1006.3 hPa0.0 mm0.0 mm/h
20.05.2019 - 15.55Uhr13.2 °C11.6 °C90 %63.0 W/m²12.9 km/hWesten26.3 km/hWesten1006.3 hPa0.0 mm0.0 mm/h
20.05.2019 - 16.00Uhr13.1 °C11.5 °C90 %67.0 W/m²6.7 km/hWest-NW16.2 km/hNord-NW1006.3 hPa0.0 mm0.0 mm/h
20.05.2019 - 16.05Uhr13.2 °C11.6 °C90 %65.0 W/m²7.0 km/hWesten16.2 km/hWesten1006.3 hPa0.0 mm0.0 mm/h
20.05.2019 - 16.10Uhr13.2 °C11.6 °C90 %76.0 W/m²5.4 km/hWesten14.0 km/hWest-SW1006.3 hPa0.0 mm0.0 mm/h
20.05.2019 - 16.15Uhr13.2 °C11.6 °C90 %81.0 W/m²3.7 km/hWesten8.3 km/hWesten1006.3 hPa0.0 mm0.0 mm/h
20.05.2019 - 16.20Uhr13.2 °C11.6 °C90 %86.0 W/m²7.3 km/hWesten16.2 km/hWest-NW1006.4 hPa0.0 mm0.0 mm/h
20.05.2019 - 16.25Uhr13.2 °C11.6 °C90 %102.0 W/m²6.9 km/hWest-NW16.2 km/hWest-NW1006.3 hPa0.0 mm0.0 mm/h
20.05.2019 - 16.30Uhr13.3 °C11.7 °C90 %90.0 W/m²5.4 km/hWesten16.2 km/hWesten1006.4 hPa0.0 mm0.0 mm/h
20.05.2019 - 16.35Uhr13.3 °C11.7 °C90 %67.0 W/m²12.1 km/hWest-NW22.0 km/hWesten1006.5 hPa0.0 mm0.0 mm/h
20.05.2019 - 16.40Uhr13.3 °C11.7 °C90 %84.0 W/m²14.4 km/hWesten30.2 km/hWesten1006.5 hPa0.0 mm0.0 mm/h
20.05.2019 - 16.45Uhr13.3 °C11.7 °C90 %95.0 W/m²11.2 km/hWesten20.2 km/hNord-NW1006.5 hPa0.0 mm0.0 mm/h
20.05.2019 - 16.50Uhr13.3 °C11.7 °C90 %102.0 W/m²10.9 km/hWest-NW24.5 km/hWest-NW1006.5 hPa0.0 mm0.0 mm/h
20.05.2019 - 16.55Uhr13.3 °C11.7 °C90 %97.0 W/m²9.8 km/hWest-NW16.2 km/hWest-SW1006.5 hPa0.0 mm0.0 mm/h
20.05.2019 - 17.00Uhr13.4 °C11.8 °C90 %109.0 W/m²10.3 km/hWesten18.0 km/hWesten1006.5 hPa0.0 mm0.0 mm/h
20.05.2019 - 17.05Uhr13.4 °C11.8 °C90 %100.0 W/m²12.7 km/hWesten20.2 km/hWest-SW1006.6 hPa0.0 mm0.0 mm/h
20.05.2019 - 17.10Uhr13.4 °C11.8 °C90 %79.0 W/m²8.7 km/hWesten16.2 km/hWesten1006.6 hPa0.0 mm0.0 mm/h
20.05.2019 - 17.15Uhr13.4 °C11.8 °C90 %67.0 W/m²5.2 km/hWest-NW12.2 km/hWest-NW1006.6 hPa0.0 mm0.0 mm/h
20.05.2019 - 17.20Uhr13.4 °C11.8 °C90 %67.0 W/m²5.6 km/hWest-NW12.2 km/hWesten1006.6 hPa0.0 mm0.0 mm/h
20.05.2019 - 17.25Uhr13.4 °C11.8 °C90 %56.0 W/m²6.2 km/hWest-SW14.0 km/hSüdwesten1006.6 hPa0.0 mm0.0 mm/h
20.05.2019 - 17.30Uhr13.3 °C11.7 °C90 %51.0 W/m²8.9 km/hWesten18.0 km/hWesten1006.6 hPa0.0 mm0.0 mm/h
20.05.2019 - 17.35Uhr13.2 °C11.6 °C90 %33.0 W/m²7.1 km/hWesten24.5 km/hNordwesten1006.6 hPa0.0 mm0.0 mm/h
20.05.2019 - 17.40Uhr13.2 °C11.6 °C90 %37.0 W/m²5.3 km/hWesten16.2 km/hWest-NW1006.6 hPa0.0 mm0.0 mm/h
20.05.2019 - 17.45Uhr13.1 °C11.5 °C90 %37.0 W/m²3.0 km/hWesten8.3 km/hWesten1006.6 hPa0.0 mm0.0 mm/h
20.05.2019 - 17.50Uhr13.2 °C11.6 °C90 %33.0 W/m²1.8 km/hWesten5.8 km/hWesten1006.6 hPa0.0 mm0.0 mm/h
20.05.2019 - 17.55Uhr13.2 °C11.6 °C90 %25.0 W/m²3.5 km/hWesten8.3 km/hWesten1006.6 hPa0.0 mm0.0 mm/h
20.05.2019 - 18.00Uhr13.2 °C11.6 °C90 %28.0 W/m²2.9 km/hWest-SW8.3 km/hWest-SW1006.7 hPa0.0 mm0.0 mm/h
20.05.2019 - 18.05Uhr13.2 °C11.6 °C90 %33.0 W/m²4.1 km/hSüd-SO10.1 km/hSüd-SO1006.7 hPa0.0 mm0.0 mm/h
20.05.2019 - 18.10Uhr13.2 °C11.6 °C90 %33.0 W/m²1.4 km/hSüdwesten5.8 km/hSüdwesten1006.7 hPa0.2 mm0.0 mm/h
20.05.2019 - 18.15Uhr13.2 °C11.6 °C90 %35.0 W/m²2.3 km/hSüdwesten5.8 km/hSüdwesten1006.8 hPa0.0 mm0.0 mm/h
20.05.2019 - 18.20Uhr13.1 °C11.5 °C90 %40.0 W/m²4.5 km/hSüd-SO12.2 km/hSüdosten1006.9 hPa0.2 mm1.0 mm/h
20.05.2019 - 18.25Uhr13.1 °C11.5 °C90 %18.0 W/m²3.8 km/hOst-SO8.3 km/hOst-SO1007.0 hPa0.0 mm1.0 mm/h
20.05.2019 - 18.30Uhr13.0 °C11.4 °C90 %14.0 W/m²5.3 km/hNordwesten8.3 km/hSüdwesten1007.0 hPa0.0 mm1.0 mm/h
20.05.2019 - 18.35Uhr12.9 °C11.3 °C90 %14.0 W/m²4.7 km/hWesten10.1 km/hWesten1007.1 hPa0.0 mm1.0 mm/h
20.05.2019 - 18.40Uhr12.9 °C11.3 °C90 %18.0 W/m²6.4 km/hWesten18.0 km/hWesten1007.1 hPa0.4 mm4.0 mm/h
20.05.2019 - 18.45Uhr12.8 °C11.2 °C90 %18.0 W/m²2.9 km/hWest-NW8.3 km/hWest-NW1007.2 hPa0.2 mm4.8 mm/h
20.05.2019 - 18.50Uhr12.8 °C11.2 °C90 %18.0 W/m²6.7 km/hWest-NW12.2 km/hWesten1007.3 hPa0.4 mm6.0 mm/h
20.05.2019 - 18.55Uhr12.8 °C11.2 °C90 %19.0 W/m²5.8 km/hWest-NW12.2 km/hWest-NW1007.3 hPa0.4 mm6.0 mm/h
20.05.2019 - 19.00Uhr12.7 °C11.1 °C90 %18.0 W/m²7.7 km/hWesten14.0 km/hWesten1007.4 hPa0.6 mm7.2 mm/h
20.05.2019 - 19.05Uhr12.6 °C11.0 °C90 %18.0 W/m²3.6 km/hWesten8.3 km/hWesten1007.4 hPa0.4 mm7.2 mm/h
20.05.2019 - 19.10Uhr12.5 °C10.9 °C90 %18.0 W/m²7.0 km/hWesten16.2 km/hNordwesten1007.3 hPa0.6 mm9.8 mm/h
20.05.2019 - 19.15Uhr12.5 °C10.9 °C90 %19.0 W/m²4.8 km/hWesten8.3 km/hWesten1007.3 hPa0.4 mm10.4 mm/h